sensor_id;sensor_type;location;lat;lon;timestamp;P1;durP1;ratioP1;P2;durP2;ratioP2
57325;SDS011;43161;50.950;18.224;2023-12-20T00:01:47;12.80;;;6.90;;
57325;SDS011;43161;50.950;18.224;2023-12-20T00:04:12;15.30;;;7.00;;
57325;SDS011;43161;50.950;18.224;2023-12-20T00:06:38;16.20;;;7.30;;
57325;SDS011;43161;50.950;18.224;2023-12-20T00:09:04;16.50;;;7.50;;
57325;SDS011;43161;50.950;18.224;2023-12-20T00:11:29;15.30;;;7.70;;
57325;SDS011;43161;50.950;18.224;2023-12-20T00:13:55;16.60;;;7.60;;
57325;SDS011;43161;50.950;18.224;2023-12-20T00:16:20;16.20;;;7.80;;
57325;SDS011;43161;50.950;18.224;2023-12-20T00:18:46;15.80;;;7.70;;
57325;SDS011;43161;50.950;18.224;2023-12-20T00:21:11;16.10;;;7.70;;
57325;SDS011;43161;50.950;18.224;2023-12-20T00:23:37;17.00;;;8.70;;
57325;SDS011;43161;50.950;18.224;2023-12-20T00:26:02;15.70;;;7.90;;
57325;SDS011;43161;50.950;18.224;2023-12-20T00:28:28;16.80;;;7.80;;
57325;SDS011;43161;50.950;18.224;2023-12-20T00:30:54;16.40;;;8.10;;
57325;SDS011;43161;50.950;18.224;2023-12-20T00:33:19;15.60;;;7.50;;
57325;SDS011;43161;50.950;18.224;2023-12-20T00:35:45;15.10;;;8.00;;
57325;SDS011;43161;50.950;18.224;2023-12-20T00:38:10;14.70;;;7.90;;
57325;SDS011;43161;50.950;18.224;2023-12-20T00:40:36;17.00;;;8.50;;
57325;SDS011;43161;50.950;18.224;2023-12-20T00:43:03;15.00;;;7.90;;
57325;SDS011;43161;50.950;18.224;2023-12-20T00:45:28;15.90;;;7.80;;
57325;SDS011;43161;50.950;18.224;2023-12-20T00:47:54;15.80;;;8.60;;
57325;SDS011;43161;50.950;18.224;2023-12-20T00:50:19;16.40;;;8.40;;
57325;SDS011;43161;50.950;18.224;2023-12-20T00:52:47;14.90;;;8.30;;
57325;SDS011;43161;50.950;18.224;2023-12-20T00:55:13;17.60;;;9.10;;
57325;SDS011;43161;50.950;18.224;2023-12-20T00:57:39;16.60;;;7.80;;
57325;SDS011;43161;50.950;18.224;2023-12-20T01:00:05;15.90;;;7.70;;
57325;SDS011;43161;50.950;18.224;2023-12-20T01:02:31;15.20;;;8.20;;
57325;SDS011;43161;50.950;18.224;2023-12-20T01:04:57;15.90;;;9.10;;
57325;SDS011;43161;50.950;18.224;2023-12-20T01:07:22;14.40;;;8.30;;
57325;SDS011;43161;50.950;18.224;2023-12-20T01:09:48;15.40;;;7.50;;
57325;SDS011;43161;50.950;18.224;2023-12-20T01:12:13;15.70;;;8.90;;
57325;SDS011;43161;50.950;18.224;2023-12-20T01:14:39;15.40;;;8.80;;
57325;SDS011;43161;50.950;18.224;2023-12-20T01:17:05;15.00;;;8.80;;
57325;SDS011;43161;50.950;18.224;2023-12-20T01:19:30;15.10;;;8.40;;
57325;SDS011;43161;50.950;18.224;2023-12-20T01:21:56;16.20;;;8.50;;
57325;SDS011;43161;50.950;18.224;2023-12-20T01:24:21;16.10;;;8.30;;
57325;SDS011;43161;50.950;18.224;2023-12-20T01:26:47;16.50;;;8.60;;
57325;SDS011;43161;50.950;18.224;2023-12-20T01:29:13;16.20;;;9.30;;
57325;SDS011;43161;50.950;18.224;2023-12-20T01:31:39;16.80;;;8.30;;
57325;SDS011;43161;50.950;18.224;2023-12-20T01:34:06;14.50;;;8.90;;
57325;SDS011;43161;50.950;18.224;2023-12-20T01:36:31;14.90;;;7.90;;
57325;SDS011;43161;50.950;18.224;2023-12-20T01:38:57;15.20;;;8.40;;
57325;SDS011;43161;50.950;18.224;2023-12-20T01:41:23;16.70;;;9.30;;
57325;SDS011;43161;50.950;18.224;2023-12-20T01:43:49;16.20;;;8.80;;
57325;SDS011;43161;50.950;18.224;2023-12-20T01:46:14;15.20;;;9.20;;
57325;SDS011;43161;50.950;18.224;2023-12-20T01:48:40;15.60;;;9.00;;
57325;SDS011;43161;50.950;18.224;2023-12-20T01:51:07;14.90;;;8.90;;
57325;SDS011;43161;50.950;18.224;2023-12-20T01:53:33;14.80;;;9.20;;
57325;SDS011;43161;50.950;18.224;2023-12-20T01:55:59;15.00;;;8.80;;
57325;SDS011;43161;50.950;18.224;2023-12-20T01:58:24;15.10;;;9.30;;
57325;SDS011;43161;50.950;18.224;2023-12-20T02:00:51;15.40;;;9.40;;
57325;SDS011;43161;50.950;18.224;2023-12-20T02:03:17;15.20;;;8.80;;
57325;SDS011;43161;50.950;18.224;2023-12-20T02:05:43;17.10;;;8.90;;
57325;SDS011;43161;50.950;18.224;2023-12-20T02:08:09;15.60;;;9.50;;
57325;SDS011;43161;50.950;18.224;2023-12-20T02:10:35;17.50;;;9.50;;
57325;SDS011;43161;50.950;18.224;2023-12-20T02:13:01;18.50;;;10.20;;
57325;SDS011;43161;50.950;18.224;2023-12-20T02:15:26;17.90;;;10.60;;
57325;SDS011;43161;50.950;18.224;2023-12-20T02:17:52;19.80;;;11.10;;
57325;SDS011;43161;50.950;18.224;2023-12-20T02:20:17;18.10;;;9.80;;
57325;SDS011;43161;50.950;18.224;2023-12-20T02:22:43;18.80;;;10.80;;
57325;SDS011;43161;50.950;18.224;2023-12-20T02:25:08;19.00;;;10.20;;
57325;SDS011;43161;50.950;18.224;2023-12-20T02:27:34;19.10;;;9.50;;
57325;SDS011;43161;50.950;18.224;2023-12-20T02:30:00;19.90;;;12.10;;
57325;SDS011;43161;50.950;18.224;2023-12-20T02:32:25;19.40;;;11.30;;
57325;SDS011;43161;50.950;18.224;2023-12-20T02:34:51;20.20;;;11.60;;
57325;SDS011;43161;50.950;18.224;2023-12-20T02:37:17;22.00;;;13.50;;
57325;SDS011;43161;50.950;18.224;2023-12-20T02:39:42;20.00;;;12.00;;
57325;SDS011;43161;50.950;18.224;2023-12-20T02:42:08;22.30;;;13.40;;
57325;SDS011;43161;50.950;18.224;2023-12-20T02:44:34;22.70;;;13.60;;
57325;SDS011;43161;50.950;18.224;2023-12-20T02:46:59;22.40;;;13.90;;
57325;SDS011;43161;50.950;18.224;2023-12-20T02:50:50;22.60;;;14.50;;
57325;SDS011;43161;50.950;18.224;2023-12-20T02:53:16;22.00;;;14.20;;
57325;SDS011;43161;50.950;18.224;2023-12-20T02:55:41;24.10;;;15.10;;
57325;SDS011;43161;50.950;18.224;2023-12-20T02:58:07;26.80;;;14.60;;
57325;SDS011;43161;50.950;18.224;2023-12-20T03:00:32;23.50;;;13.80;;
57325;SDS011;43161;50.950;18.224;2023-12-20T03:02:58;24.90;;;14.50;;
57325;SDS011;43161;50.950;18.224;2023-12-20T03:05:24;27.60;;;16.50;;
57325;SDS011;43161;50.950;18.224;2023-12-20T03:07:50;25.20;;;15.30;;
57325;SDS011;43161;50.950;18.224;2023-12-20T03:10:17;22.20;;;12.40;;
57325;SDS011;43161;50.950;18.224;2023-12-20T03:12:43;24.30;;;14.40;;
57325;SDS011;43161;50.950;18.224;2023-12-20T03:15:10;25.00;;;14.80;;
57325;SDS011;43161;50.950;18.224;2023-12-20T03:17:35;25.10;;;14.20;;
57325;SDS011;43161;50.950;18.224;2023-12-20T03:20:01;28.20;;;14.10;;
57325;SDS011;43161;50.950;18.224;2023-12-20T03:22:28;26.70;;;16.20;;
57325;SDS011;43161;50.950;18.224;2023-12-20T03:24:53;24.60;;;13.00;;
57325;SDS011;43161;50.950;18.224;2023-12-20T03:27:19;23.00;;;12.70;;
57325;SDS011;43161;50.950;18.224;2023-12-20T03:29:44;25.40;;;16.50;;
57325;SDS011;43161;50.950;18.224;2023-12-20T03:32:10;24.90;;;16.30;;
57325;SDS011;43161;50.950;18.224;2023-12-20T03:34:35;26.00;;;15.90;;
57325;SDS011;43161;50.950;18.224;2023-12-20T03:37:01;26.10;;;16.70;;
57325;SDS011;43161;50.950;18.224;2023-12-20T03:39:26;25.20;;;14.10;;
57325;SDS011;43161;50.950;18.224;2023-12-20T03:41:52;24.40;;;13.30;;
57325;SDS011;43161;50.950;18.224;2023-12-20T03:44:18;29.60;;;16.80;;
57325;SDS011;43161;50.950;18.224;2023-12-20T03:46:43;28.00;;;16.80;;
57325;SDS011;43161;50.950;18.224;2023-12-20T03:49:11;26.40;;;17.60;;
57325;SDS011;43161;50.950;18.224;2023-12-20T03:51:37;25.10;;;14.90;;
57325;SDS011;43161;50.950;18.224;2023-12-20T03:54:03;26.20;;;14.40;;
57325;SDS011;43161;50.950;18.224;2023-12-20T03:56:28;28.10;;;13.90;;
57325;SDS011;43161;50.950;18.224;2023-12-20T03:58:54;26.60;;;15.30;;
57325;SDS011;43161;50.950;18.224;2023-12-20T04:01:19;26.40;;;16.60;;
57325;SDS011;43161;50.950;18.224;2023-12-20T04:03:45;27.60;;;17.20;;
57325;SDS011;43161;50.950;18.224;2023-12-20T04:06:16;25.30;;;14.60;;
57325;SDS011;43161;50.950;18.224;2023-12-20T04:08:42;28.30;;;17.30;;
57325;SDS011;43161;50.950;18.224;2023-12-20T04:11:08;28.20;;;17.30;;
57325;SDS011;43161;50.950;18.224;2023-12-20T04:13:33;26.60;;;16.30;;
57325;SDS011;43161;50.950;18.224;2023-12-20T04:15:59;27.70;;;16.90;;
57325;SDS011;43161;50.950;18.224;2023-12-20T04:18:24;28.00;;;14.00;;
57325;SDS011;43161;50.950;18.224;2023-12-20T04:20:50;32.20;;;20.60;;
57325;SDS011;43161;50.950;18.224;2023-12-20T04:23:16;25.70;;;13.20;;
57325;SDS011;43161;50.950;18.224;2023-12-20T04:25:42;23.70;;;15.20;;
57325;SDS011;43161;50.950;18.224;2023-12-20T04:28:08;26.40;;;15.20;;
57325;SDS011;43161;50.950;18.224;2023-12-20T04:30:34;31.10;;;17.00;;
57325;SDS011;43161;50.950;18.224;2023-12-20T04:33:00;24.80;;;15.10;;
57325;SDS011;43161;50.950;18.224;2023-12-20T04:35:26;27.00;;;13.80;;
57325;SDS011;43161;50.950;18.224;2023-12-20T04:37:51;21.90;;;12.30;;
57325;SDS011;43161;50.950;18.224;2023-12-20T04:40:17;24.20;;;16.30;;
57325;SDS011;43161;50.950;18.224;2023-12-20T04:42:43;25.70;;;15.10;;
57325;SDS011;43161;50.950;18.224;2023-12-20T04:45:09;23.10;;;14.20;;
57325;SDS011;43161;50.950;18.224;2023-12-20T04:47:34;23.20;;;15.60;;
57325;SDS011;43161;50.950;18.224;2023-12-20T04:50:00;22.20;;;12.10;;
57325;SDS011;43161;50.950;18.224;2023-12-20T04:52:27;22.00;;;13.70;;
57325;SDS011;43161;50.950;18.224;2023-12-20T04:54:53;25.70;;;15.70;;
57325;SDS011;43161;50.950;18.224;2023-12-20T04:57:18;26.10;;;15.90;;
57325;SDS011;43161;50.950;18.224;2023-12-20T04:59:44;22.50;;;12.30;;
57325;SDS011;43161;50.950;18.224;2023-12-20T05:02:10;22.60;;;11.80;;
57325;SDS011;43161;50.950;18.224;2023-12-20T05:04:35;24.20;;;12.90;;
57325;SDS011;43161;50.950;18.224;2023-12-20T05:07:01;22.30;;;13.90;;
57325;SDS011;43161;50.950;18.224;2023-12-20T05:09:26;24.20;;;14.50;;
57325;SDS011;43161;50.950;18.224;2023-12-20T05:11:52;19.40;;;10.40;;
57325;SDS011;43161;50.950;18.224;2023-12-20T05:14:18;20.60;;;11.20;;
57325;SDS011;43161;50.950;18.224;2023-12-20T05:16:44;21.60;;;11.70;;
57325;SDS011;43161;50.950;18.224;2023-12-20T05:19:09;19.50;;;10.90;;
57325;SDS011;43161;50.950;18.224;2023-12-20T05:21:35;20.50;;;10.90;;
57325;SDS011;43161;50.950;18.224;2023-12-20T05:24:01;21.30;;;10.90;;
57325;SDS011;43161;50.950;18.224;2023-12-20T05:26:26;88.20;;;36.90;;
57325;SDS011;43161;50.950;18.224;2023-12-20T05:28:52;34.40;;;17.60;;
57325;SDS011;43161;50.950;18.224;2023-12-20T05:31:17;28.40;;;14.80;;
57325;SDS011;43161;50.950;18.224;2023-12-20T05:33:43;139.00;;;53.50;;
57325;SDS011;43161;50.950;18.224;2023-12-20T05:36:08;25.00;;;14.60;;
57325;SDS011;43161;50.950;18.224;2023-12-20T05:38:36;26.00;;;13.20;;
57325;SDS011;43161;50.950;18.224;2023-12-20T05:41:02;24.00;;;13.30;;
57325;SDS011;43161;50.950;18.224;2023-12-20T05:43:29;24.50;;;13.80;;
57325;SDS011;43161;50.950;18.224;2023-12-20T05:45:54;35.80;;;21.00;;
57325;SDS011;43161;50.950;18.224;2023-12-20T05:48:20;26.90;;;13.80;;
57325;SDS011;43161;50.950;18.224;2023-12-20T05:50:45;22.60;;;12.10;;
57325;SDS011;43161;50.950;18.224;2023-12-20T05:53:11;26.60;;;14.50;;
57325;SDS011;43161;50.950;18.224;2023-12-20T05:55:37;25.80;;;14.50;;
57325;SDS011;43161;50.950;18.224;2023-12-20T05:58:02;24.70;;;14.10;;
57325;SDS011;43161;50.950;18.224;2023-12-20T06:00:28;20.70;;;10.70;;
57325;SDS011;43161;50.950;18.224;2023-12-20T06:02:54;13.60;;;6.30;;
57325;SDS011;43161;50.950;18.224;2023-12-20T06:05:20;13.60;;;5.80;;
57325;SDS011;43161;50.950;18.224;2023-12-20T06:07:45;17.90;;;9.60;;
57325;SDS011;43161;50.950;18.224;2023-12-20T06:10:13;15.70;;;7.20;;
57325;SDS011;43161;50.950;18.224;2023-12-20T06:12:39;22.20;;;15.00;;
57325;SDS011;43161;50.950;18.224;2023-12-20T06:15:05;20.20;;;12.40;;
57325;SDS011;43161;50.950;18.224;2023-12-20T06:17:31;15.40;;;9.90;;
57325;SDS011;43161;50.950;18.224;2023-12-20T06:19:57;15.20;;;8.10;;
57325;SDS011;43161;50.950;18.224;2023-12-20T06:22:23;25.10;;;16.30;;
57325;SDS011;43161;50.950;18.224;2023-12-20T06:24:48;14.70;;;7.20;;
57325;SDS011;43161;50.950;18.224;2023-12-20T06:27:14;13.10;;;7.80;;
57325;SDS011;43161;50.950;18.224;2023-12-20T06:29:40;13.30;;;7.30;;
57325;SDS011;43161;50.950;18.224;2023-12-20T06:32:06;12.00;;;5.60;;
57325;SDS011;43161;50.950;18.224;2023-12-20T06:34:32;9.10;;;3.50;;
57325;SDS011;43161;50.950;18.224;2023-12-20T06:36:57;10.30;;;4.90;;
57325;SDS011;43161;50.950;18.224;2023-12-20T06:39:23;14.90;;;8.00;;
57325;SDS011;43161;50.950;18.224;2023-12-20T06:41:48;10.50;;;4.20;;
57325;SDS011;43161;50.950;18.224;2023-12-20T06:44:14;11.20;;;4.40;;
57325;SDS011;43161;50.950;18.224;2023-12-20T06:46:40;17.60;;;7.00;;
57325;SDS011;43161;50.950;18.224;2023-12-20T06:49:06;22.70;;;7.50;;
57325;SDS011;43161;50.950;18.224;2023-12-20T06:51:31;13.50;;;4.50;;
57325;SDS011;43161;50.950;18.224;2023-12-20T06:53:57;17.40;;;5.40;;
57325;SDS011;43161;50.950;18.224;2023-12-20T06:56:23;12.10;;;4.30;;
57325;SDS011;43161;50.950;18.224;2023-12-20T06:58:49;13.80;;;5.80;;
57325;SDS011;43161;50.950;18.224;2023-12-20T07:01:15;11.00;;;4.10;;
57325;SDS011;43161;50.950;18.224;2023-12-20T07:03:41;27.40;;;11.30;;
57325;SDS011;43161;50.950;18.224;2023-12-20T07:06:07;24.10;;;9.10;;
57325;SDS011;43161;50.950;18.224;2023-12-20T07:08:33;42.70;;;11.00;;
57325;SDS011;43161;50.950;18.224;2023-12-20T07:10:59;35.70;;;9.80;;
57325;SDS011;43161;50.950;18.224;2023-12-20T07:13:26;65.60;;;19.10;;
57325;SDS011;43161;50.950;18.224;2023-12-20T07:15:51;39.50;;;15.50;;
57325;SDS011;43161;50.950;18.224;2023-12-20T07:18:17;30.90;;;12.20;;
57325;SDS011;43161;50.950;18.224;2023-12-20T07:20:43;13.60;;;6.00;;
57325;SDS011;43161;50.950;18.224;2023-12-20T07:23:08;10.70;;;3.50;;
57325;SDS011;43161;50.950;18.224;2023-12-20T07:25:34;7.40;;;2.30;;
57325;SDS011;43161;50.950;18.224;2023-12-20T07:28:00;6.90;;;2.10;;
57325;SDS011;43161;50.950;18.224;2023-12-20T07:30:26;6.80;;;2.20;;
57325;SDS011;43161;50.950;18.224;2023-12-20T07:32:51;8.00;;;2.60;;
57325;SDS011;43161;50.950;18.224;2023-12-20T07:35:18;10.10;;;4.80;;
57325;SDS011;43161;50.950;18.224;2023-12-20T07:37:43;10.10;;;3.70;;
57325;SDS011;43161;50.950;18.224;2023-12-20T07:40:10;8.20;;;2.80;;
57325;SDS011;43161;50.950;18.224;2023-12-20T07:42:35;10.40;;;4.00;;
57325;SDS011;43161;50.950;18.224;2023-12-20T07:45:01;12.80;;;5.40;;
57325;SDS011;43161;50.950;18.224;2023-12-20T07:47:27;13.40;;;5.60;;
57325;SDS011;43161;50.950;18.224;2023-12-20T07:49:52;15.80;;;7.00;;
57325;SDS011;43161;50.950;18.224;2023-12-20T07:52:18;12.50;;;6.10;;
57325;SDS011;43161;50.950;18.224;2023-12-20T07:54:45;10.80;;;4.40;;
57325;SDS011;43161;50.950;18.224;2023-12-20T07:57:11;11.80;;;4.90;;
57325;SDS011;43161;50.950;18.224;2023-12-20T07:59:37;15.00;;;7.40;;
57325;SDS011;43161;50.950;18.224;2023-12-20T08:02:03;16.20;;;8.90;;
57325;SDS011;43161;50.950;18.224;2023-12-20T08:04:29;15.00;;;6.90;;
57325;SDS011;43161;50.950;18.224;2023-12-20T08:06:55;12.10;;;5.30;;
57325;SDS011;43161;50.950;18.224;2023-12-20T08:09:21;13.20;;;6.50;;
57325;SDS011;43161;50.950;18.224;2023-12-20T08:11:47;16.90;;;8.40;;
57325;SDS011;43161;50.950;18.224;2023-12-20T08:14:13;19.60;;;10.50;;
57325;SDS011;43161;50.950;18.224;2023-12-20T08:16:39;20.40;;;12.20;;
57325;SDS011;43161;50.950;18.224;2023-12-20T08:19:05;22.50;;;10.90;;
57325;SDS011;43161;50.950;18.224;2023-12-20T08:21:31;21.00;;;12.20;;
57325;SDS011;43161;50.950;18.224;2023-12-20T08:23:56;18.20;;;10.50;;
57325;SDS011;43161;50.950;18.224;2023-12-20T08:26:22;17.90;;;8.90;;
57325;SDS011;43161;50.950;18.224;2023-12-20T08:28:49;22.60;;;13.30;;
57325;SDS011;43161;50.950;18.224;2023-12-20T08:31:15;27.70;;;17.30;;
57325;SDS011;43161;50.950;18.224;2023-12-20T08:33:45;17.60;;;9.80;;
57325;SDS011;43161;50.950;18.224;2023-12-20T08:36:12;13.80;;;7.10;;
57325;SDS011;43161;50.950;18.224;2023-12-20T08:38:37;14.40;;;8.40;;
57325;SDS011;43161;50.950;18.224;2023-12-20T08:41:03;15.50;;;8.30;;
57325;SDS011;43161;50.950;18.224;2023-12-20T08:43:32;17.10;;;9.70;;
57325;SDS011;43161;50.950;18.224;2023-12-20T08:45:59;18.20;;;9.80;;
57325;SDS011;43161;50.950;18.224;2023-12-20T08:48:24;15.10;;;9.60;;
57325;SDS011;43161;50.950;18.224;2023-12-20T08:50:50;19.20;;;11.10;;
57325;SDS011;43161;50.950;18.224;2023-12-20T08:53:18;21.10;;;11.10;;
57325;SDS011;43161;50.950;18.224;2023-12-20T08:55:44;16.20;;;9.40;;
57325;SDS011;43161;50.950;18.224;2023-12-20T08:58:10;15.70;;;9.20;;
57325;SDS011;43161;50.950;18.224;2023-12-20T09:00:36;14.90;;;8.10;;
57325;SDS011;43161;50.950;18.224;2023-12-20T09:03:01;17.30;;;8.90;;
57325;SDS011;43161;50.950;18.224;2023-12-20T09:05:28;21.00;;;9.90;;
57325;SDS011;43161;50.950;18.224;2023-12-20T09:07:53;26.20;;;12.10;;
57325;SDS011;43161;50.950;18.224;2023-12-20T09:10:19;20.60;;;11.10;;
57325;SDS011;43161;50.950;18.224;2023-12-20T09:12:50;30.90;;;13.50;;
57325;SDS011;43161;50.950;18.224;2023-12-20T09:15:17;17.50;;;8.70;;
57325;SDS011;43161;50.950;18.224;2023-12-20T09:17:42;27.10;;;13.10;;
57325;SDS011;43161;50.950;18.224;2023-12-20T09:20:09;20.60;;;9.90;;
57325;SDS011;43161;50.950;18.224;2023-12-20T09:22:35;20.10;;;9.30;;
57325;SDS011;43161;50.950;18.224;2023-12-20T09:25:01;12.80;;;5.80;;
57325;SDS011;43161;50.950;18.224;2023-12-20T09:27:29;15.80;;;7.70;;
57325;SDS011;43161;50.950;18.224;2023-12-20T09:29:55;13.30;;;6.50;;
57325;SDS011;43161;50.950;18.224;2023-12-20T09:32:20;12.00;;;5.70;;
57325;SDS011;43161;50.950;18.224;2023-12-20T09:34:47;11.40;;;5.30;;
57325;SDS011;43161;50.950;18.224;2023-12-20T09:37:13;12.40;;;5.60;;
57325;SDS011;43161;50.950;18.224;2023-12-20T09:39:39;10.70;;;4.80;;
57325;SDS011;43161;50.950;18.224;2023-12-20T09:42:05;10.10;;;4.60;;
57325;SDS011;43161;50.950;18.224;2023-12-20T09:44:32;10.60;;;4.50;;
57325;SDS011;43161;50.950;18.224;2023-12-20T09:47:01;10.90;;;4.30;;
57325;SDS011;43161;50.950;18.224;2023-12-20T09:49:28;9.20;;;3.90;;
57325;SDS011;43161;50.950;18.224;2023-12-20T09:51:55;9.00;;;3.20;;
57325;SDS011;43161;50.950;18.224;2023-12-20T09:54:21;9.90;;;3.90;;
57325;SDS011;43161;50.950;18.224;2023-12-20T09:56:48;9.20;;;3.40;;
57325;SDS011;43161;50.950;18.224;2023-12-20T09:59:14;9.10;;;3.40;;
57325;SDS011;43161;50.950;18.224;2023-12-20T10:01:40;8.30;;;3.30;;
57325;SDS011;43161;50.950;18.224;2023-12-20T10:04:07;9.30;;;4.10;;
57325;SDS011;43161;50.950;18.224;2023-12-20T10:06:35;8.40;;;3.00;;
57325;SDS011;43161;50.950;18.224;2023-12-20T10:09:02;9.40;;;3.50;;
57325;SDS011;43161;50.950;18.224;2023-12-20T10:11:29;7.70;;;2.90;;
57325;SDS011;43161;50.950;18.224;2023-12-20T10:14:01;6.70;;;2.20;;
57325;SDS011;43161;50.950;18.224;2023-12-20T10:16:27;7.50;;;2.60;;
57325;SDS011;43161;50.950;18.224;2023-12-20T10:18:54;7.80;;;2.50;;
57325;SDS011;43161;50.950;18.224;2023-12-20T10:21:20;7.50;;;2.60;;
57325;SDS011;43161;50.950;18.224;2023-12-20T10:23:47;7.70;;;2.40;;
57325;SDS011;43161;50.950;18.224;2023-12-20T10:26:21;7.40;;;2.60;;
57325;SDS011;43161;50.950;18.224;2023-12-20T10:28:52;6.80;;;2.10;;
57325;SDS011;43161;50.950;18.224;2023-12-20T10:34:02;8.50;;;3.30;;
57325;SDS011;43161;50.950;18.224;2023-12-20T10:36:31;39.60;;;17.40;;
57325;SDS011;43161;50.950;18.224;2023-12-20T10:38:58;13.30;;;7.50;;
57325;SDS011;43161;50.950;18.224;2023-12-20T10:41:28;11.00;;;5.40;;
57325;SDS011;43161;50.950;18.224;2023-12-20T10:44:01;9.10;;;3.50;;
57325;SDS011;43161;50.950;18.224;2023-12-20T10:46:28;9.70;;;4.00;;
57325;SDS011;43161;50.950;18.224;2023-12-20T10:48:55;9.00;;;3.50;;
57325;SDS011;43161;50.950;18.224;2023-12-20T10:51:22;14.00;;;6.50;;
57325;SDS011;43161;50.950;18.224;2023-12-20T10:53:49;26.80;;;9.40;;
57325;SDS011;43161;50.950;18.224;2023-12-20T10:56:19;18.60;;;6.50;;
57325;SDS011;43161;50.950;18.224;2023-12-20T10:58:46;10.30;;;3.70;;
57325;SDS011;43161;50.950;18.224;2023-12-20T11:01:13;12.50;;;4.40;;
57325;SDS011;43161;50.950;18.224;2023-12-20T11:03:43;15.50;;;7.70;;
57325;SDS011;43161;50.950;18.224;2023-12-20T11:06:53;8.60;;;3.00;;
57325;SDS011;43161;50.950;18.224;2023-12-20T11:17:16;15.20;;;6.50;;
57325;SDS011;43161;50.950;18.224;2023-12-20T11:22:35;10.20;;;3.60;;
57325;SDS011;43161;50.950;18.224;2023-12-20T11:25:04;15.30;;;5.10;;
57325;SDS011;43161;50.950;18.224;2023-12-20T11:27:33;13.60;;;3.90;;
57325;SDS011;43161;50.950;18.224;2023-12-20T11:30:00;15.70;;;6.00;;
57325;SDS011;43161;50.950;18.224;2023-12-20T11:32:28;22.60;;;8.60;;
57325;SDS011;43161;50.950;18.224;2023-12-20T11:37:30;12.00;;;3.70;;
57325;SDS011;43161;50.950;18.224;2023-12-20T11:40:00;11.00;;;3.70;;
57325;SDS011;43161;50.950;18.224;2023-12-20T11:42:32;14.70;;;4.20;;
57325;SDS011;43161;50.950;18.224;2023-12-20T11:45:07;13.80;;;5.50;;
57325;SDS011;43161;50.950;18.224;2023-12-20T11:47:34;40.60;;;14.40;;
57325;SDS011;43161;50.950;18.224;2023-12-20T11:50:00;51.10;;;18.80;;
57325;SDS011;43161;50.950;18.224;2023-12-20T11:52:29;17.10;;;6.50;;
57325;SDS011;43161;50.950;18.224;2023-12-20T11:54:55;51.00;;;16.60;;
57325;SDS011;43161;50.950;18.224;2023-12-20T11:57:21;83.90;;;27.70;;
57325;SDS011;43161;50.950;18.224;2023-12-20T11:59:47;72.30;;;24.60;;
57325;SDS011;43161;50.950;18.224;2023-12-20T12:02:12;47.80;;;17.60;;
57325;SDS011;43161;50.950;18.224;2023-12-20T12:04:41;18.80;;;6.90;;
57325;SDS011;43161;50.950;18.224;2023-12-20T12:07:06;11.70;;;4.20;;
57325;SDS011;43161;50.950;18.224;2023-12-20T12:09:33;11.10;;;4.50;;
57325;SDS011;43161;50.950;18.224;2023-12-20T12:11:58;8.60;;;2.90;;
57325;SDS011;43161;50.950;18.224;2023-12-20T12:14:24;11.20;;;3.50;;
57325;SDS011;43161;50.950;18.224;2023-12-20T12:16:50;7.50;;;2.40;;
57325;SDS011;43161;50.950;18.224;2023-12-20T12:19:24;9.00;;;2.80;;
57325;SDS011;43161;50.950;18.224;2023-12-20T12:21:51;8.20;;;2.80;;
57325;SDS011;43161;50.950;18.224;2023-12-20T12:24:29;8.00;;;2.80;;
57325;SDS011;43161;50.950;18.224;2023-12-20T12:26:57;9.30;;;2.70;;
57325;SDS011;43161;50.950;18.224;2023-12-20T12:29:23;8.80;;;2.30;;
57325;SDS011;43161;50.950;18.224;2023-12-20T12:31:50;8.60;;;3.00;;
57325;SDS011;43161;50.950;18.224;2023-12-20T12:34:17;11.20;;;3.20;;
57325;SDS011;43161;50.950;18.224;2023-12-20T12:36:43;12.70;;;5.00;;
57325;SDS011;43161;50.950;18.224;2023-12-20T12:39:13;12.60;;;4.20;;
57325;SDS011;43161;50.950;18.224;2023-12-20T12:41:41;10.20;;;3.30;;
57325;SDS011;43161;50.950;18.224;2023-12-20T12:44:06;19.70;;;7.30;;
57325;SDS011;43161;50.950;18.224;2023-12-20T12:46:32;14.40;;;5.70;;
57325;SDS011;43161;50.950;18.224;2023-12-20T12:48:58;20.90;;;11.40;;
57325;SDS011;43161;50.950;18.224;2023-12-20T12:51:23;21.00;;;7.30;;
57325;SDS011;43161;50.950;18.224;2023-12-20T12:53:49;18.90;;;7.10;;
57325;SDS011;43161;50.950;18.224;2023-12-20T12:56:14;14.50;;;5.70;;
57325;SDS011;43161;50.950;18.224;2023-12-20T12:58:40;14.70;;;5.30;;
57325;SDS011;43161;50.950;18.224;2023-12-20T13:01:06;12.20;;;4.40;;
57325;SDS011;43161;50.950;18.224;2023-12-20T13:03:32;14.40;;;5.30;;
57325;SDS011;43161;50.950;18.224;2023-12-20T13:05:57;17.30;;;6.30;;
57325;SDS011;43161;50.950;18.224;2023-12-20T13:08:23;10.30;;;3.70;;
57325;SDS011;43161;50.950;18.224;2023-12-20T13:10:49;9.40;;;2.50;;
57325;SDS011;43161;50.950;18.224;2023-12-20T13:13:14;11.30;;;4.10;;
57325;SDS011;43161;50.950;18.224;2023-12-20T13:15:41;12.60;;;4.30;;
57325;SDS011;43161;50.950;18.224;2023-12-20T13:18:06;12.50;;;4.30;;
57325;SDS011;43161;50.950;18.224;2023-12-20T13:20:32;8.80;;;3.50;;
57325;SDS011;43161;50.950;18.224;2023-12-20T13:22:58;12.20;;;4.70;;
57325;SDS011;43161;50.950;18.224;2023-12-20T13:25:24;9.10;;;2.70;;
57325;SDS011;43161;50.950;18.224;2023-12-20T13:27:50;9.00;;;2.90;;
57325;SDS011;43161;50.950;18.224;2023-12-20T13:30:16;7.60;;;2.70;;
57325;SDS011;43161;50.950;18.224;2023-12-20T13:32:42;10.40;;;2.90;;
57325;SDS011;43161;50.950;18.224;2023-12-20T13:35:08;9.60;;;2.60;;
57325;SDS011;43161;50.950;18.224;2023-12-20T13:37:34;8.80;;;2.80;;
57325;SDS011;43161;50.950;18.224;2023-12-20T13:40:00;8.50;;;2.40;;
57325;SDS011;43161;50.950;18.224;2023-12-20T13:42:28;9.30;;;2.50;;
57325;SDS011;43161;50.950;18.224;2023-12-20T13:44:54;7.80;;;2.20;;
57325;SDS011;43161;50.950;18.224;2023-12-20T13:47:19;8.60;;;2.30;;
57325;SDS011;43161;50.950;18.224;2023-12-20T13:49:46;11.00;;;2.70;;
57325;SDS011;43161;50.950;18.224;2023-12-20T13:52:11;7.80;;;2.80;;
57325;SDS011;43161;50.950;18.224;2023-12-20T13:54:37;9.50;;;3.20;;
57325;SDS011;43161;50.950;18.224;2023-12-20T13:57:03;9.30;;;2.90;;
57325;SDS011;43161;50.950;18.224;2023-12-20T13:59:29;9.30;;;2.90;;
57325;SDS011;43161;50.950;18.224;2023-12-20T14:01:54;8.70;;;2.50;;
57325;SDS011;43161;50.950;18.224;2023-12-20T14:04:20;9.00;;;3.20;;
57325;SDS011;43161;50.950;18.224;2023-12-20T14:06:47;9.50;;;3.00;;
57325;SDS011;43161;50.950;18.224;2023-12-20T14:09:12;9.50;;;3.10;;
57325;SDS011;43161;50.950;18.224;2023-12-20T14:11:38;8.30;;;3.30;;
57325;SDS011;43161;50.950;18.224;2023-12-20T14:14:06;12.00;;;3.50;;
57325;SDS011;43161;50.950;18.224;2023-12-20T14:16:34;11.10;;;3.80;;
57325;SDS011;43161;50.950;18.224;2023-12-20T14:19:00;20.80;;;7.80;;
57325;SDS011;43161;50.950;18.224;2023-12-20T14:21:28;10.90;;;3.80;;
57325;SDS011;43161;50.950;18.224;2023-12-20T14:23:53;8.90;;;3.70;;
57325;SDS011;43161;50.950;18.224;2023-12-20T14:26:19;8.80;;;3.60;;
57325;SDS011;43161;50.950;18.224;2023-12-20T14:28:45;12.00;;;4.30;;
57325;SDS011;43161;50.950;18.224;2023-12-20T14:31:11;8.80;;;3.60;;